Date,TemperatureHighF,TemperatureAvgF,TemperatureLowF,DewpointHighF,DewpointAvgF,DewpointLowF,HumidityHigh,HumidityAvg,HumidityLow,PressureMaxIn,PressureMinIn,WindSpeedMaxMPH,WindSpeedAvgMPH,GustSpeedMaxMPH,PrecipitationSumIn
2013-9-1,88,72,61,74,68,61,100,89,55,29.75,29.61,8,2,8,0.09
2013-9-2,71,65,58,70,60,54,100,85,65,29.87,29.66,20,5,20,0.00
2013-9-3,79,62,48,59,54,48,100,77,46,29.96,29.86,14,3,14,0.00
2013-9-4,84,65,49,68,58,49,100,81,47,30.02,29.92,17,3,17,0.00
2013-9-5,79,61,47,62,49,39,100,73,28,30.19,30.02,11,2,11,0.00
2013-9-6,86,62,43,58,50,43,100,72,31,30.17,29.92,11,2,11,0.00
2013-9-7,85,70,59,72,65,56,100,87,59,29.94,29.80,11,2,11,0.02
2013-9-8,81,69,60,65,61,56,100,78,45,30.00,29.86,13,3,13,0.00
2013-9-9,87,70,58,75,66,56,100,88,64,29.95,29.74,11,3,11,0.56
2013-9-10,95,82,70,76,70,64,100,69,39,29.89,29.74,15,4,15,0.00
2013-9-11,90,75,62,75,67,62,100,78,45,29.96,29.86,14,2,14,0.00
2013-9-12,80,65,54,66,58,50,100,80,47,29.95,29.82,16,4,16,0.00
2013-9-13,68,54,42,50,44,33,100,73,31,30.05,29.95,16,5,16,0.00
2013-9-14,73,53,34,55,45,34,100,79,41,30.09,29.96,12,2,12,0.00
2013-9-15,60,55,48,59,54,47,100,96,81,30.05,29.94,8,1,8,0.07
2013-9-16,68,54,42,54,48,42,100,83,48,30.28,30.05,8,3,9,0.00
2013-9-17,45,40,40,44,40,40,100,99,97,30.29,30.26,4,0,4,0.00
2013-9-18,40,40,40,40,40,40,99,99,99,30.29,30.29,0,0,2,0.00
2013-9-19,40,40,40,40,40,40,99,99,99,30.29,30.29,0,0,2,0.00
2013-9-20,65,53,41,55,48,38,100,83,61,30.15,29.96,19,6,19,0.67
2013-9-21,68,58,40,56,51,33,100,81,48,30.28,29.91,16,7,16,0.01
2013-9-22,58,51,39,50,44,39,100,77,61,30.26,30.10,9,3,9,0.00
2013-9-23,69,50,35,50,42,35,100,78,44,30.36,30.26,11,2,11,0.00
2013-9-24,74,54,39,53,47,38,100,80,43,32.57,30.16,11,2,11,0.00
2013-9-25,77,57,42,59,49,42,100,79,37,30.20,30.14,12,2,12,0.00
2013-9-26,83,58,41,59,49,41,100,78,31,30.30,30.18,8,1,8,0.00
2013-9-27,83,61,42,63,51,42,100,76,33,30.40,30.30,11,2,11,0.00
2013-9-28,82,66,51,61,55,51,100,73,37,30.34,30.10,15,4,15,0.00
2013-9-29,76,62,46,64,54,45,100,78,44,30.20,30.08,13,3,13,0.31
2013-9-30,77,58,46,60,51,45,100,83,41,30.19,30.08,11,2,14,0.00